sensor_id;sensor_type;location;lat;lon;timestamp;P1;durP1;ratioP1;P2;durP2;ratioP2
3922;SDS011;1976;51.694;6.256;2023-02-18T00:02:10;2.93;;;1.13;;
3922;SDS011;1976;51.694;6.256;2023-02-18T00:04:35;0.90;;;0.90;;
3922;SDS011;1976;51.694;6.256;2023-02-18T00:07:01;0.60;;;0.60;;
3922;SDS011;1976;51.694;6.256;2023-02-18T00:09:26;0.60;;;0.60;;
3922;SDS011;1976;51.694;6.256;2023-02-18T00:11:52;0.73;;;0.73;;
3922;SDS011;1976;51.694;6.256;2023-02-18T00:14:18;1.63;;;1.33;;
3922;SDS011;1976;51.694;6.256;2023-02-18T00:16:44;0.60;;;0.60;;
3922;SDS011;1976;51.694;6.256;2023-02-18T00:19:12;0.60;;;0.60;;
3922;SDS011;1976;51.694;6.256;2023-02-18T00:21:40;0.60;;;0.60;;
3922;SDS011;1976;51.694;6.256;2023-02-18T00:24:05;0.90;;;0.90;;
3922;SDS011;1976;51.694;6.256;2023-02-18T00:26:31;0.60;;;0.60;;
3922;SDS011;1976;51.694;6.256;2023-02-18T00:28:58;0.70;;;0.70;;
3922;SDS011;1976;51.694;6.256;2023-02-18T00:31:26;2.20;;;1.90;;
3922;SDS011;1976;51.694;6.256;2023-02-18T00:33:53;1.03;;;0.93;;
3922;SDS011;1976;51.694;6.256;2023-02-18T00:36:20;0.60;;;0.60;;
3922;SDS011;1976;51.694;6.256;2023-02-18T00:38:47;0.60;;;0.60;;
3922;SDS011;1976;51.694;6.256;2023-02-18T00:41:17;1.63;;;1.53;;
3922;SDS011;1976;51.694;6.256;2023-02-18T00:43:45;1.20;;;1.10;;
3922;SDS011;1976;51.694;6.256;2023-02-18T00:46:11;1.30;;;1.00;;
3922;SDS011;1976;51.694;6.256;2023-02-18T00:48:37;0.70;;;0.70;;
3922;SDS011;1976;51.694;6.256;2023-02-18T00:51:04;0.60;;;0.60;;
3922;SDS011;1976;51.694;6.256;2023-02-18T00:53:30;0.60;;;0.60;;
3922;SDS011;1976;51.694;6.256;2023-02-18T00:55:57;0.60;;;0.60;;
3922;SDS011;1976;51.694;6.256;2023-02-18T00:58:22;0.60;;;0.60;;
3922;SDS011;1976;51.694;6.256;2023-02-18T01:00:48;0.70;;;0.70;;
3922;SDS011;1976;51.694;6.256;2023-02-18T01:03:15;0.60;;;0.60;;
3922;SDS011;1976;51.694;6.256;2023-02-18T01:05:41;0.60;;;0.60;;
3922;SDS011;1976;51.694;6.256;2023-02-18T01:08:08;0.97;;;0.97;;
3922;SDS011;1976;51.694;6.256;2023-02-18T01:10:34;0.60;;;0.60;;
3922;SDS011;1976;51.694;6.256;2023-02-18T01:13:04;0.60;;;0.60;;
3922;SDS011;1976;51.694;6.256;2023-02-18T01:15:29;0.67;;;0.67;;
3922;SDS011;1976;51.694;6.256;2023-02-18T01:17:55;1.77;;;1.67;;
3922;SDS011;1976;51.694;6.256;2023-02-18T01:20:21;0.60;;;0.60;;
3922;SDS011;1976;51.694;6.256;2023-02-18T01:22:47;0.60;;;0.60;;
3922;SDS011;1976;51.694;6.256;2023-02-18T01:25:12;0.90;;;0.90;;
3922;SDS011;1976;51.694;6.256;2023-02-18T01:27:39;0.60;;;0.60;;
3922;SDS011;1976;51.694;6.256;2023-02-18T01:30:05;1.40;;;1.30;;
3922;SDS011;1976;51.694;6.256;2023-02-18T01:32:34;3.17;;;1.37;;
3922;SDS011;1976;51.694;6.256;2023-02-18T01:35:00;25.50;;;14.37;;
3922;SDS011;1976;51.694;6.256;2023-02-18T01:37:26;26.77;;;11.67;;
3922;SDS011;1976;51.694;6.256;2023-02-18T01:39:52;34.10;;;15.00;;
3922;SDS011;1976;51.694;6.256;2023-02-18T01:42:19;28.90;;;15.60;;
3922;SDS011;1976;51.694;6.256;2023-02-18T01:44:46;39.37;;;19.80;;
3922;SDS011;1976;51.694;6.256;2023-02-18T01:47:13;24.77;;;14.53;;
3922;SDS011;1976;51.694;6.256;2023-02-18T01:49:39;39.00;;;20.83;;
3922;SDS011;1976;51.694;6.256;2023-02-18T01:52:06;43.43;;;20.60;;
3922;SDS011;1976;51.694;6.256;2023-02-18T01:54:35;43.47;;;22.47;;
3922;SDS011;1976;51.694;6.256;2023-02-18T01:57:06;43.03;;;21.30;;
3922;SDS011;1976;51.694;6.256;2023-02-18T01:59:38;43.17;;;23.10;;
3922;SDS011;1976;51.694;6.256;2023-02-18T02:02:07;40.43;;;20.87;;
3922;SDS011;1976;51.694;6.256;2023-02-18T02:04:37;35.73;;;19.83;;
3922;SDS011;1976;51.694;6.256;2023-02-18T02:07:02;18.83;;;8.90;;
3922;SDS011;1976;51.694;6.256;2023-02-18T02:09:29;21.57;;;10.83;;
3922;SDS011;1976;51.694;6.256;2023-02-18T02:27:57;13.87;;;7.33;;
3922;SDS011;1976;51.694;6.256;2023-02-18T02:33:23;26.00;;;13.03;;
3922;SDS011;1976;51.694;6.256;2023-02-18T02:36:15;28.10;;;10.90;;
3922;SDS011;1976;51.694;6.256;2023-02-18T02:39:24;15.90;;;9.00;;
3922;SDS011;1976;51.694;6.256;2023-02-18T02:44:32;12.77;;;8.13;;
3922;SDS011;1976;51.694;6.256;2023-02-18T02:47:07;15.03;;;8.07;;
3922;SDS011;1976;51.694;6.256;2023-02-18T02:52:33;0.57;;;0.57;;
3922;SDS011;1976;51.694;6.256;2023-02-18T02:55:07;0.60;;;0.60;;
3922;SDS011;1976;51.694;6.256;2023-02-18T02:58:08;1.13;;;1.03;;
3922;SDS011;1976;51.694;6.256;2023-02-18T03:00:42;0.60;;;0.60;;
3922;SDS011;1976;51.694;6.256;2023-02-18T03:11:27;0.60;;;0.60;;
3922;SDS011;1976;51.694;6.256;2023-02-18T03:14:18;0.70;;;0.70;;
3922;SDS011;1976;51.694;6.256;2023-02-18T03:16:58;0.60;;;0.60;;
3922;SDS011;1976;51.694;6.256;2023-02-18T03:19:28;0.60;;;0.60;;
3922;SDS011;1976;51.694;6.256;2023-02-18T03:24:29;0.60;;;0.60;;
3922;SDS011;1976;51.694;6.256;2023-02-18T03:27:04;0.80;;;0.80;;
3922;SDS011;1976;51.694;6.256;2023-02-18T03:29:39;0.60;;;0.60;;
3922;SDS011;1976;51.694;6.256;2023-02-18T03:32:07;0.60;;;0.60;;
3922;SDS011;1976;51.694;6.256;2023-02-18T03:34:37;0.60;;;0.60;;
3922;SDS011;1976;51.694;6.256;2023-02-18T03:37:05;0.60;;;0.60;;
3922;SDS011;1976;51.694;6.256;2023-02-18T03:39:34;0.60;;;0.60;;
3922;SDS011;1976;51.694;6.256;2023-02-18T03:42:01;2.60;;;2.10;;
3922;SDS011;1976;51.694;6.256;2023-02-18T03:44:26;0.70;;;0.70;;
3922;SDS011;1976;51.694;6.256;2023-02-18T03:46:54;0.60;;;0.60;;
3922;SDS011;1976;51.694;6.256;2023-02-18T03:49:20;0.60;;;0.60;;
3922;SDS011;1976;51.694;6.256;2023-02-18T03:51:45;0.60;;;0.60;;
3922;SDS011;1976;51.694;6.256;2023-02-18T03:54:11;0.60;;;0.60;;
3922;SDS011;1976;51.694;6.256;2023-02-18T03:56:38;0.60;;;0.60;;
3922;SDS011;1976;51.694;6.256;2023-02-18T03:59:04;1.10;;;1.10;;
3922;SDS011;1976;51.694;6.256;2023-02-18T04:01:30;0.93;;;0.93;;
3922;SDS011;1976;51.694;6.256;2023-02-18T04:03:56;0.60;;;0.60;;
3922;SDS011;1976;51.694;6.256;2023-02-18T04:06:22;0.60;;;0.60;;
3922;SDS011;1976;51.694;6.256;2023-02-18T04:08:48;0.60;;;0.60;;
3922;SDS011;1976;51.694;6.256;2023-02-18T04:11:14;0.67;;;0.67;;
3922;SDS011;1976;51.694;6.256;2023-02-18T04:13:39;0.60;;;0.60;;
3922;SDS011;1976;51.694;6.256;2023-02-18T04:16:05;0.60;;;0.60;;
3922;SDS011;1976;51.694;6.256;2023-02-18T04:18:31;0.60;;;0.60;;
3922;SDS011;1976;51.694;6.256;2023-02-18T04:20:57;0.60;;;0.60;;
3922;SDS011;1976;51.694;6.256;2023-02-18T04:23:22;0.60;;;0.60;;
3922;SDS011;1976;51.694;6.256;2023-02-18T04:25:48;0.60;;;0.60;;
3922;SDS011;1976;51.694;6.256;2023-02-18T04:28:14;0.60;;;0.60;;
3922;SDS011;1976;51.694;6.256;2023-02-18T04:30:41;0.60;;;0.60;;
3922;SDS011;1976;51.694;6.256;2023-02-18T04:33:07;5.97;;;3.27;;
3922;SDS011;1976;51.694;6.256;2023-02-18T04:35:33;7.17;;;4.33;;
3922;SDS011;1976;51.694;6.256;2023-02-18T04:38:00;8.80;;;5.93;;
3922;SDS011;1976;51.694;6.256;2023-02-18T04:40:27;4.47;;;2.93;;
3922;SDS011;1976;51.694;6.256;2023-02-18T04:42:55;5.00;;;3.13;;
3922;SDS011;1976;51.694;6.256;2023-02-18T04:45:22;6.07;;;3.70;;
3922;SDS011;1976;51.694;6.256;2023-02-18T04:47:48;5.80;;;3.13;;
3922;SDS011;1976;51.694;6.256;2023-02-18T04:50:14;5.87;;;3.80;;
3922;SDS011;1976;51.694;6.256;2023-02-18T04:52:40;4.50;;;3.53;;
3922;SDS011;1976;51.694;6.256;2023-02-18T04:55:05;5.33;;;3.90;;
3922;SDS011;1976;51.694;6.256;2023-02-18T04:57:31;4.23;;;2.13;;
3922;SDS011;1976;51.694;6.256;2023-02-18T04:59:57;0.57;;;0.57;;
3922;SDS011;1976;51.694;6.256;2023-02-18T05:02:23;0.60;;;0.60;;
3922;SDS011;1976;51.694;6.256;2023-02-18T05:04:48;3.27;;;2.97;;
3922;SDS011;1976;51.694;6.256;2023-02-18T05:07:14;5.00;;;2.70;;
3922;SDS011;1976;51.694;6.256;2023-02-18T05:09:40;2.70;;;2.43;;
3922;SDS011;1976;51.694;6.256;2023-02-18T05:12:05;2.93;;;2.00;;
3922;SDS011;1976;51.694;6.256;2023-02-18T05:14:31;2.83;;;2.33;;
3922;SDS011;1976;51.694;6.256;2023-02-18T05:16:57;4.30;;;2.80;;
3922;SDS011;1976;51.694;6.256;2023-02-18T05:19:23;2.23;;;2.07;;
3922;SDS011;1976;51.694;6.256;2023-02-18T05:21:48;2.10;;;1.90;;
3922;SDS011;1976;51.694;6.256;2023-02-18T05:24:14;1.77;;;1.67;;
3922;SDS011;1976;51.694;6.256;2023-02-18T05:26:40;2.33;;;2.13;;
3922;SDS011;1976;51.694;6.256;2023-02-18T05:29:05;1.93;;;1.83;;
3922;SDS011;1976;51.694;6.256;2023-02-18T05:31:31;1.60;;;1.50;;
3922;SDS011;1976;51.694;6.256;2023-02-18T05:33:56;4.20;;;1.70;;
3922;SDS011;1976;51.694;6.256;2023-02-18T05:36:22;2.00;;;1.80;;
3922;SDS011;1976;51.694;6.256;2023-02-18T05:38:48;0.60;;;0.60;;
3922;SDS011;1976;51.694;6.256;2023-02-18T05:41:13;0.83;;;0.83;;
3922;SDS011;1976;51.694;6.256;2023-02-18T05:43:39;0.60;;;0.60;;
3922;SDS011;1976;51.694;6.256;2023-02-18T05:46:24;0.60;;;0.60;;
3922;SDS011;1976;51.694;6.256;2023-02-18T05:48:50;0.60;;;0.60;;
3922;SDS011;1976;51.694;6.256;2023-02-18T05:51:15;0.60;;;0.60;;
3922;SDS011;1976;51.694;6.256;2023-02-18T05:53:41;0.60;;;0.60;;
3922;SDS011;1976;51.694;6.256;2023-02-18T05:56:06;0.60;;;0.60;;
3922;SDS011;1976;51.694;6.256;2023-02-18T05:58:32;0.60;;;0.60;;
3922;SDS011;1976;51.694;6.256;2023-02-18T06:00:58;0.60;;;0.60;;
3922;SDS011;1976;51.694;6.256;2023-02-18T06:03:24;0.60;;;0.60;;
3922;SDS011;1976;51.694;6.256;2023-02-18T06:05:49;0.60;;;0.60;;
3922;SDS011;1976;51.694;6.256;2023-02-18T06:08:16;0.60;;;0.60;;
3922;SDS011;1976;51.694;6.256;2023-02-18T06:10:44;0.60;;;0.60;;
3922;SDS011;1976;51.694;6.256;2023-02-18T06:13:10;0.60;;;0.60;;
3922;SDS011;1976;51.694;6.256;2023-02-18T06:15:35;0.60;;;0.60;;
3922;SDS011;1976;51.694;6.256;2023-02-18T06:18:02;0.60;;;0.60;;
3922;SDS011;1976;51.694;6.256;2023-02-18T06:20:27;0.60;;;0.60;;
3922;SDS011;1976;51.694;6.256;2023-02-18T06:22:53;0.60;;;0.60;;
3922;SDS011;1976;51.694;6.256;2023-02-18T06:25:19;0.60;;;0.60;;
3922;SDS011;1976;51.694;6.256;2023-02-18T06:27:45;0.60;;;0.60;;
3922;SDS011;1976;51.694;6.256;2023-02-18T06:30:10;0.60;;;0.60;;
3922;SDS011;1976;51.694;6.256;2023-02-18T06:32:36;0.60;;;0.60;;
3922;SDS011;1976;51.694;6.256;2023-02-18T06:35:02;0.60;;;0.60;;
3922;SDS011;1976;51.694;6.256;2023-02-18T06:37:28;0.60;;;0.60;;
3922;SDS011;1976;51.694;6.256;2023-02-18T06:39:53;0.60;;;0.60;;
3922;SDS011;1976;51.694;6.256;2023-02-18T06:42:19;0.60;;;0.60;;
3922;SDS011;1976;51.694;6.256;2023-02-18T06:44:44;0.60;;;0.60;;
3922;SDS011;1976;51.694;6.256;2023-02-18T06:47:10;0.60;;;0.60;;
3922;SDS011;1976;51.694;6.256;2023-02-18T06:49:36;0.60;;;0.60;;
3922;SDS011;1976;51.694;6.256;2023-02-18T06:52:03;0.60;;;0.60;;
3922;SDS011;1976;51.694;6.256;2023-02-18T06:54:29;0.60;;;0.60;;
3922;SDS011;1976;51.694;6.256;2023-02-18T06:56:55;0.60;;;0.60;;
3922;SDS011;1976;51.694;6.256;2023-02-18T06:59:22;0.60;;;0.60;;
3922;SDS011;1976;51.694;6.256;2023-02-18T07:01:48;0.60;;;0.60;;
3922;SDS011;1976;51.694;6.256;2023-02-18T07:04:13;0.60;;;0.60;;
3922;SDS011;1976;51.694;6.256;2023-02-18T07:06:39;0.60;;;0.60;;
3922;SDS011;1976;51.694;6.256;2023-02-18T07:09:05;0.60;;;0.60;;
3922;SDS011;1976;51.694;6.256;2023-02-18T07:11:31;0.60;;;0.60;;
3922;SDS011;1976;51.694;6.256;2023-02-18T07:13:57;0.60;;;0.60;;
3922;SDS011;1976;51.694;6.256;2023-02-18T07:16:22;0.60;;;0.60;;
3922;SDS011;1976;51.694;6.256;2023-02-18T07:18:48;0.70;;;0.70;;
3922;SDS011;1976;51.694;6.256;2023-02-18T07:21:14;0.60;;;0.60;;
3922;SDS011;1976;51.694;6.256;2023-02-18T07:23:39;0.60;;;0.60;;
3922;SDS011;1976;51.694;6.256;2023-02-18T07:26:06;0.60;;;0.60;;
3922;SDS011;1976;51.694;6.256;2023-02-18T07:28:33;0.60;;;0.60;;
3922;SDS011;1976;51.694;6.256;2023-02-18T07:30:59;0.60;;;0.60;;
3922;SDS011;1976;51.694;6.256;2023-02-18T07:33:25;0.60;;;0.60;;
3922;SDS011;1976;51.694;6.256;2023-02-18T07:35:52;0.60;;;0.60;;
3922;SDS011;1976;51.694;6.256;2023-02-18T07:38:21;3.33;;;2.30;;
3922;SDS011;1976;51.694;6.256;2023-02-18T07:40:48;4.00;;;3.60;;
3922;SDS011;1976;51.694;6.256;2023-02-18T07:43:13;3.57;;;2.90;;
3922;SDS011;1976;51.694;6.256;2023-02-18T07:45:39;3.03;;;2.67;;
3922;SDS011;1976;51.694;6.256;2023-02-18T07:48:05;2.77;;;2.57;;
3922;SDS011;1976;51.694;6.256;2023-02-18T07:50:31;4.40;;;3.50;;
3922;SDS011;1976;51.694;6.256;2023-02-18T07:53:03;3.47;;;2.63;;
3922;SDS011;1976;51.694;6.256;2023-02-18T07:55:29;0.60;;;0.60;;
3922;SDS011;1976;51.694;6.256;2023-02-18T07:58:14;0.60;;;0.60;;
3922;SDS011;1976;51.694;6.256;2023-02-18T08:00:44;0.60;;;0.60;;
3922;SDS011;1976;51.694;6.256;2023-02-18T08:03:12;0.60;;;0.60;;
3922;SDS011;1976;51.694;6.256;2023-02-18T08:05:38;0.60;;;0.60;;
3922;SDS011;1976;51.694;6.256;2023-02-18T08:08:04;0.60;;;0.60;;
3922;SDS011;1976;51.694;6.256;2023-02-18T08:10:30;0.60;;;0.60;;
3922;SDS011;1976;51.694;6.256;2023-02-18T08:12:56;0.60;;;0.60;;
3922;SDS011;1976;51.694;6.256;2023-02-18T08:15:21;0.60;;;0.60;;
3922;SDS011;1976;51.694;6.256;2023-02-18T08:17:47;0.60;;;0.60;;
3922;SDS011;1976;51.694;6.256;2023-02-18T08:20:13;0.63;;;0.63;;
3922;SDS011;1976;51.694;6.256;2023-02-18T08:22:38;0.60;;;0.60;;
3922;SDS011;1976;51.694;6.256;2023-02-18T08:25:04;0.60;;;0.60;;
3922;SDS011;1976;51.694;6.256;2023-02-18T08:27:30;0.60;;;0.60;;
3922;SDS011;1976;51.694;6.256;2023-02-18T08:29:56;0.60;;;0.60;;
3922;SDS011;1976;51.694;6.256;2023-02-18T08:32:25;0.60;;;0.60;;
3922;SDS011;1976;51.694;6.256;2023-02-18T08:34:52;0.60;;;0.60;;
3922;SDS011;1976;51.694;6.256;2023-02-18T08:37:18;0.60;;;0.60;;
3922;SDS011;1976;51.694;6.256;2023-02-18T08:39:43;0.60;;;0.60;;
3922;SDS011;1976;51.694;6.256;2023-02-18T08:42:09;0.70;;;0.70;;
3922;SDS011;1976;51.694;6.256;2023-02-18T08:44:34;0.60;;;0.60;;
3922;SDS011;1976;51.694;6.256;2023-02-18T08:47:00;0.60;;;0.60;;
3922;SDS011;1976;51.694;6.256;2023-02-18T08:49:26;0.60;;;0.60;;
3922;SDS011;1976;51.694;6.256;2023-02-18T08:51:51;0.60;;;0.60;;
3922;SDS011;1976;51.694;6.256;2023-02-18T08:54:17;2.10;;;1.27;;
3922;SDS011;1976;51.694;6.256;2023-02-18T08:56:43;0.60;;;0.60;;
3922;SDS011;1976;51.694;6.256;2023-02-18T08:59:09;0.67;;;0.67;;
3922;SDS011;1976;51.694;6.256;2023-02-18T09:01:35;0.60;;;0.60;;
3922;SDS011;1976;51.694;6.256;2023-02-18T09:04:00;0.60;;;0.60;;
3922;SDS011;1976;51.694;6.256;2023-02-18T09:06:26;0.60;;;0.60;;
3922;SDS011;1976;51.694;6.256;2023-02-18T09:08:52;0.60;;;0.60;;
3922;SDS011;1976;51.694;6.256;2023-02-18T09:11:18;0.60;;;0.60;;
3922;SDS011;1976;51.694;6.256;2023-02-18T09:13:44;0.60;;;0.60;;
3922;SDS011;1976;51.694;6.256;2023-02-18T09:16:11;0.60;;;0.60;;
3922;SDS011;1976;51.694;6.256;2023-02-18T09:18:45;0.60;;;0.60;;
3922;SDS011;1976;51.694;6.256;2023-02-18T09:21:11;0.60;;;0.60;;
3922;SDS011;1976;51.694;6.256;2023-02-18T09:23:38;0.60;;;0.60;;
3922;SDS011;1976;51.694;6.256;2023-02-18T09:26:05;0.60;;;0.60;;
3922;SDS011;1976;51.694;6.256;2023-02-18T09:28:33;0.70;;;0.70;;
3922;SDS011;1976;51.694;6.256;2023-02-18T09:31:03;0.60;;;0.60;;
3922;SDS011;1976;51.694;6.256;2023-02-18T09:33:30;0.60;;;0.60;;
3922;SDS011;1976;51.694;6.256;2023-02-18T09:35:55;0.60;;;0.60;;
3922;SDS011;1976;51.694;6.256;2023-02-18T09:38:21;0.70;;;0.70;;
3922;SDS011;1976;51.694;6.256;2023-02-18T09:40:47;0.60;;;0.60;;
3922;SDS011;1976;51.694;6.256;2023-02-18T09:45:56;0.83;;;0.83;;
3922;SDS011;1976;51.694;6.256;2023-02-18T09:48:30;0.60;;;0.60;;
3922;SDS011;1976;51.694;6.256;2023-02-18T09:50:58;0.60;;;0.60;;
3922;SDS011;1976;51.694;6.256;2023-02-18T09:53:24;0.80;;;0.80;;
3922;SDS011;1976;51.694;6.256;2023-02-18T09:55:51;0.60;;;0.60;;
3922;SDS011;1976;51.694;6.256;2023-02-18T09:58:21;0.60;;;0.60;;
3922;SDS011;1976;51.694;6.256;2023-02-18T10:03:45;0.60;;;0.60;;
3922;SDS011;1976;51.694;6.256;2023-02-18T10:06:15;0.60;;;0.60;;
3922;SDS011;1976;51.694;6.256;2023-02-18T10:08:51;0.60;;;0.60;;
3922;SDS011;1976;51.694;6.256;2023-02-18T10:11:32;0.70;;;0.70;;
3922;SDS011;1976;51.694;6.256;2023-02-18T10:14:05;0.60;;;0.60;;
3922;SDS011;1976;51.694;6.256;2023-02-18T10:16:34;0.63;;;0.63;;
3922;SDS011;1976;51.694;6.256;2023-02-18T10:19:03;0.60;;;0.60;;
3922;SDS011;1976;51.694;6.256;2023-02-18T10:21:39;0.60;;;0.60;;
3922;SDS011;1976;51.694;6.256;2023-02-18T10:27:29;0.60;;;0.60;;
3922;SDS011;1976;51.694;6.256;2023-02-18T10:30:01;0.60;;;0.60;;
3922;SDS011;1976;51.694;6.256;2023-02-18T10:32:44;0.60;;;0.60;;
3922;SDS011;1976;51.694;6.256;2023-02-18T10:38:01;0.60;;;0.60;;
3922;SDS011;1976;51.694;6.256;2023-02-18T10:40:58;0.60;;;0.60;;
3922;SDS011;1976;51.694;6.256;2023-02-18T10:44:08;0.60;;;0.60;;
3922;SDS011;1976;51.694;6.256;2023-02-18T10:47:05;0.60;;;0.60;;
3922;SDS011;1976;51.694;6.256;2023-02-18T10:52:23;0.60;;;0.60;;
3922;SDS011;1976;51.694;6.256;2023-02-18T10:54:57;0.60;;;0.60;;
3922;SDS011;1976;51.694;6.256;2023-02-18T10:57:26;0.60;;;0.60;;
3922;SDS011;1976;51.694;6.256;2023-02-18T10:59:56;0.60;;;0.60;;
3922;SDS011;1976;51.694;6.256;2023-02-18T11:05:41;0.60;;;0.60;;
3922;SDS011;1976;51.694;6.256;2023-02-18T11:08:10;0.60;;;0.60;;
3922;SDS011;1976;51.694;6.256;2023-02-18T11:10:42;0.60;;;0.60;;
3922;SDS011;1976;51.694;6.256;2023-02-18T11:13:11;0.60;;;0.60;;
3922;SDS011;1976;51.694;6.256;2023-02-18T11:15:52;0.60;;;0.60;;
3922;SDS011;1976;51.694;6.256;2023-02-18T11:18:26;0.60;;;0.60;;
3922;SDS011;1976;51.694;6.256;2023-02-18T11:20:57;0.60;;;0.60;;
3922;SDS011;1976;51.694;6.256;2023-02-18T11:23:28;0.60;;;0.60;;
3922;SDS011;1976;51.694;6.256;2023-02-18T11:25:55;0.60;;;0.60;;
3922;SDS011;1976;51.694;6.256;2023-02-18T11:28:40;0.60;;;0.60;;
3922;SDS011;1976;51.694;6.256;2023-02-18T11:31:15;0.60;;;0.60;;
3922;SDS011;1976;51.694;6.256;2023-02-18T11:33:52;0.70;;;0.70;;
3922;SDS011;1976;51.694;6.256;2023-02-18T11:36:24;0.60;;;0.60;;
3922;SDS011;1976;51.694;6.256;2023-02-18T11:38:55;0.60;;;0.60;;
3922;SDS011;1976;51.694;6.256;2023-02-18T11:41:41;0.60;;;0.60;;
3922;SDS011;1976;51.694;6.256;2023-02-18T11:49:37;0.60;;;0.60;;
3922;SDS011;1976;51.694;6.256;2023-02-18T11:55:04;0.60;;;0.60;;
3922;SDS011;1976;51.694;6.256;2023-02-18T11:57:42;0.60;;;0.60;;
3922;SDS011;1976;51.694;6.256;2023-02-18T12:00:16;0.60;;;0.60;;
3922;SDS011;1976;51.694;6.256;2023-02-18T12:02:51;0.60;;;0.60;;
3922;SDS011;1976;51.694;6.256;2023-02-18T12:05:24;0.60;;;0.60;;
3922;SDS011;1976;51.694;6.256;2023-02-18T12:07:54;0.60;;;0.60;;
3922;SDS011;1976;51.694;6.256;2023-02-18T12:10:25;0.60;;;0.60;;
3922;SDS011;1976;51.694;6.256;2023-02-18T12:15:39;0.60;;;0.60;;
3922;SDS011;1976;51.694;6.256;2023-02-18T12:18:28;0.60;;;0.60;;
3922;SDS011;1976;51.694;6.256;2023-02-18T12:40:13;0.60;;;0.60;;
3922;SDS011;1976;51.694;6.256;2023-02-18T12:46:18;0.60;;;0.60;;
3922;SDS011;1976;51.694;6.256;2023-02-18T12:49:38;0.60;;;0.60;;
3922;SDS011;1976;51.694;6.256;2023-02-18T12:54:43;0.60;;;0.60;;
3922;SDS011;1976;51.694;6.256;2023-02-18T13:00:22;0.60;;;0.60;;
3922;SDS011;1976;51.694;6.256;2023-02-18T13:06:15;0.60;;;0.60;;
3922;SDS011;1976;51.694;6.256;2023-02-18T13:16:35;0.60;;;0.60;;
3922;SDS011;1976;51.694;6.256;2023-02-18T13:21:55;0.60;;;0.60;;
3922;SDS011;1976;51.694;6.256;2023-02-18T13:24:32;0.60;;;0.60;;
3922;SDS011;1976;51.694;6.256;2023-02-18T13:27:02;0.60;;;0.60;;
3922;SDS011;1976;51.694;6.256;2023-02-18T13:30:07;0.60;;;0.60;;
3922;SDS011;1976;51.694;6.256;2023-02-18T13:32:49;0.80;;;0.70;;
3922;SDS011;1976;51.694;6.256;2023-02-18T13:35:41;0.60;;;0.60;;
3922;SDS011;1976;51.694;6.256;2023-02-18T13:41:16;0.60;;;0.60;;
3922;SDS011;1976;51.694;6.256;2023-02-18T13:43:42;0.70;;;0.70;;
3922;SDS011;1976;51.694;6.256;2023-02-18T13:51:12;0.60;;;0.60;;
3922;SDS011;1976;51.694;6.256;2023-02-18T13:53:41;0.60;;;0.60;;
3922;SDS011;1976;51.694;6.256;2023-02-18T14:01:24;0.60;;;0.60;;
3922;SDS011;1976;51.694;6.256;2023-02-18T14:07:49;0.60;;;0.60;;
3922;SDS011;1976;51.694;6.256;2023-02-18T14:09:58;0.60;;;0.60;;
3922;SDS011;1976;51.694;6.256;2023-02-18T14:20:48;0.60;;;0.60;;
3922;SDS011;1976;51.694;6.256;2023-02-18T14:26:06;0.60;;;0.60;;
3922;SDS011;1976;51.694;6.256;2023-02-18T14:28:54;0.60;;;0.60;;
3922;SDS011;1976;51.694;6.256;2023-02-18T14:31:26;0.60;;;0.60;;
3922;SDS011;1976;51.694;6.256;2023-02-18T14:50:19;0.60;;;0.60;;
3922;SDS011;1976;51.694;6.256;2023-02-18T14:52:47;0.60;;;0.60;;
3922;SDS011;1976;51.694;6.256;2023-02-18T14:55:37;0.60;;;0.60;;
3922;SDS011;1976;51.694;6.256;2023-02-18T14:58:12;0.60;;;0.60;;
3922;SDS011;1976;51.694;6.256;2023-02-18T15:01:06;0.60;;;0.60;;
3922;SDS011;1976;51.694;6.256;2023-02-18T15:03:41;0.60;;;0.60;;
3922;SDS011;1976;51.694;6.256;2023-02-18T15:08:58;0.60;;;0.60;;
3922;SDS011;1976;51.694;6.256;2023-02-18T15:11:34;0.60;;;0.60;;
3922;SDS011;1976;51.694;6.256;2023-02-18T15:14:15;0.80;;;0.80;;
3922;SDS011;1976;51.694;6.256;2023-02-18T15:16:44;0.60;;;0.60;;
3922;SDS011;1976;51.694;6.256;2023-02-18T15:19:12;0.60;;;0.60;;
3922;SDS011;1976;51.694;6.256;2023-02-18T15:21:44;0.60;;;0.60;;
3922;SDS011;1976;51.694;6.256;2023-02-18T15:26:58;0.57;;;0.57;;
3922;SDS011;1976;51.694;6.256;2023-02-18T15:29:39;0.60;;;0.60;;
3922;SDS011;1976;51.694;6.256;2023-02-18T15:32:21;0.60;;;0.60;;
3922;SDS011;1976;51.694;6.256;2023-02-18T15:34:52;0.60;;;0.60;;
3922;SDS011;1976;51.694;6.256;2023-02-18T15:37:20;0.50;;;0.50;;
3922;SDS011;1976;51.694;6.256;2023-02-18T15:39:46;0.60;;;0.60;;
3922;SDS011;1976;51.694;6.256;2023-02-18T15:42:28;0.60;;;0.60;;
3922;SDS011;1976;51.694;6.256;2023-02-18T15:47:41;0.60;;;0.60;;
3922;SDS011;1976;51.694;6.256;2023-02-18T15:50:16;0.60;;;0.60;;
3922;SDS011;1976;51.694;6.256;2023-02-18T15:52:46;0.60;;;0.60;;
3922;SDS011;1976;51.694;6.256;2023-02-18T15:55:14;0.60;;;0.60;;
3922;SDS011;1976;51.694;6.256;2023-02-18T15:57:50;0.60;;;0.60;;
3922;SDS011;1976;51.694;6.256;2023-02-18T16:00:19;0.60;;;0.60;;
3922;SDS011;1976;51.694;6.256;2023-02-18T16:03:07;0.60;;;0.60;;
3922;SDS011;1976;51.694;6.256;2023-02-18T16:06:17;7.90;;;4.57;;
3922;SDS011;1976;51.694;6.256;2023-02-18T16:11:38;6.27;;;2.40;;
3922;SDS011;1976;51.694;6.256;2023-02-18T16:14:20;2.20;;;1.77;;
3922;SDS011;1976;51.694;6.256;2023-02-18T16:17:02;7.27;;;2.90;;
3922;SDS011;1976;51.694;6.256;2023-02-18T16:19:31;3.70;;;2.43;;
3922;SDS011;1976;51.694;6.256;2023-02-18T16:21:58;3.67;;;1.63;;
3922;SDS011;1976;51.694;6.256;2023-02-18T16:24:29;5.63;;;1.40;;
3922;SDS011;1976;51.694;6.256;2023-02-18T16:26:58;4.57;;;1.80;;
3922;SDS011;1976;51.694;6.256;2023-02-18T16:29:40;9.60;;;2.30;;
3922;SDS011;1976;51.694;6.256;2023-02-18T16:32:07;15.20;;;2.87;;
3922;SDS011;1976;51.694;6.256;2023-02-18T16:34:33;14.53;;;3.57;;
3922;SDS011;1976;51.694;6.256;2023-02-18T16:37:00;8.60;;;4.50;;
3922;SDS011;1976;51.694;6.256;2023-02-18T16:39:44;8.70;;;4.93;;
3922;SDS011;1976;51.694;6.256;2023-02-18T16:42:11;8.30;;;4.07;;
3922;SDS011;1976;51.694;6.256;2023-02-18T16:44:37;7.67;;;3.27;;
3922;SDS011;1976;51.694;6.256;2023-02-18T16:47:04;6.03;;;2.90;;
3922;SDS011;1976;51.694;6.256;2023-02-18T16:49:30;11.27;;;4.47;;
3922;SDS011;1976;51.694;6.256;2023-02-18T16:51:57;7.13;;;5.17;;
3922;SDS011;1976;51.694;6.256;2023-02-18T16:54:25;16.03;;;4.23;;
3922;SDS011;1976;51.694;6.256;2023-02-18T16:56:52;21.73;;;6.43;;
3922;SDS011;1976;51.694;6.256;2023-02-18T16:59:18;8.30;;;3.67;;
3922;SDS011;1976;51.694;6.256;2023-02-18T17:01:43;8.83;;;5.23;;
3922;SDS011;1976;51.694;6.256;2023-02-18T17:04:11;10.03;;;4.43;;
3922;SDS011;1976;51.694;6.256;2023-02-18T17:06:38;6.80;;;5.10;;
3922;SDS011;1976;51.694;6.256;2023-02-18T17:09:08;10.77;;;5.00;;
3922;SDS011;1976;51.694;6.256;2023-02-18T17:11:44;10.10;;;4.97;;
3922;SDS011;1976;51.694;6.256;2023-02-18T17:14:12;6.97;;;3.87;;
3922;SDS011;1976;51.694;6.256;2023-02-18T17:16:39;9.77;;;5.60;;
3922;SDS011;1976;51.694;6.256;2023-02-18T17:19:05;9.80;;;5.27;;
3922;SDS011;1976;51.694;6.256;2023-02-18T17:21:30;15.57;;;5.97;;
3922;SDS011;1976;51.694;6.256;2023-02-18T17:23:56;19.20;;;5.80;;
3922;SDS011;1976;51.694;6.256;2023-02-18T17:26:23;14.30;;;4.23;;
3922;SDS011;1976;51.694;6.256;2023-02-18T17:28:50;6.80;;;2.77;;
3922;SDS011;1976;51.694;6.256;2023-02-18T17:31:19;6.20;;;2.70;;
3922;SDS011;1976;51.694;6.256;2023-02-18T17:33:48;12.10;;;2.50;;
3922;SDS011;1976;51.694;6.256;2023-02-18T17:36:14;12.73;;;3.67;;
3922;SDS011;1976;51.694;6.256;2023-02-18T17:38:40;14.63;;;4.20;;
3922;SDS011;1976;51.694;6.256;2023-02-18T17:41:06;10.43;;;4.80;;
3922;SDS011;1976;51.694;6.256;2023-02-18T17:43:32;8.10;;;4.77;;
3922;SDS011;1976;51.694;6.256;2023-02-18T17:45:59;10.40;;;4.43;;
3922;SDS011;1976;51.694;6.256;2023-02-18T17:48:25;7.03;;;4.00;;
3922;SDS011;1976;51.694;6.256;2023-02-18T17:50:52;16.50;;;5.30;;
3922;SDS011;1976;51.694;6.256;2023-02-18T17:53:18;11.07;;;5.00;;
3922;SDS011;1976;51.694;6.256;2023-02-18T17:55:44;8.80;;;5.37;;
3922;SDS011;1976;51.694;6.256;2023-02-18T17:58:11;20.70;;;7.30;;
3922;SDS011;1976;51.694;6.256;2023-02-18T18:00:39;8.50;;;4.30;;
3922;SDS011;1976;51.694;6.256;2023-02-18T18:03:13;11.27;;;3.17;;
3922;SDS011;1976;51.694;6.256;2023-02-18T18:05:41;8.30;;;3.67;;
3922;SDS011;1976;51.694;6.256;2023-02-18T18:08:08;10.83;;;3.40;;
3922;SDS011;1976;51.694;6.256;2023-02-18T18:10:35;11.47;;;3.70;;